Time;durP1;ratioP1;P1;durP2;ratioP2;P2;SDS_P1;SDS_P2;PMS_P1;PMS_P2;Temp;Humidity;BMP_temperature;BMP_pressure;BME280_temperature;BME280_humidity;BME280_pressure;Samples;Min_cycle;Max_cycle;Signal;HPM_P1;HPM_P2
2023/04/05 00:01:48;;;;;;;4.78;2.60;;;-0.60;99.90;;;;;;5029499;28;20463;-77
2023/04/05 00:04:19;;;;;;;4.20;1.95;;;-0.70;99.90;;;;;;5029315;28;20386;-76
2023/04/05 00:06:51;;;;;;;3.70;2.55;;;-0.80;99.90;;;;;;5026365;28;20073;-76
2023/04/05 00:09:19;;;;;;;42.03;19.35;;;-0.70;99.90;;;;;;5026198;28;20037;-77
2023/04/05 00:11:46;;;;;;;40.97;23.08;;;-0.70;99.90;;;;;;5012233;28;20030;-76
2023/04/05 00:14:13;;;;;;;14.07;8.13;;;-0.70;99.90;;;;;;5029980;28;20041;-76
2023/04/05 00:16:39;;;;;;;13.75;9.27;;;-0.80;99.90;;;;;;5031755;28;20030;-81
2023/04/05 00:19:05;;;;;;;11.90;7.68;;;-0.80;99.90;;;;;;5026414;28;20057;-76
2023/04/05 00:21:32;;;;;;;4.65;3.35;;;-0.80;99.90;;;;;;5031040;28;20410;-76
2023/04/05 00:23:58;;;;;;;7.05;4.25;;;-0.90;99.90;;;;;;5019744;28;20030;-77
2023/04/05 00:26:25;;;;;;;4.75;3.05;;;-0.90;99.90;;;;;;5030627;28;20033;-76
2023/04/05 00:28:55;;;;;;;6.38;3.20;;;-0.90;99.90;;;;;;5022769;28;20033;-76
2023/04/05 00:31:22;;;;;;;5.28;2.70;;;-1.00;99.90;;;;;;5015979;28;20040;-76
2023/04/05 00:33:48;;;;;;;5.10;2.40;;;-1.20;99.90;;;;;;5028425;28;20050;-77
2023/04/05 00:36:17;;;;;;;4.30;2.40;;;-1.20;99.90;;;;;;5027898;28;20042;-77
2023/04/05 00:38:44;;;;;;;6.57;2.63;;;-1.30;99.90;;;;;;5019210;28;20049;-83
2023/04/05 00:41:12;;;;;;;3.55;2.30;;;-1.30;1.00;;;;;;5023467;28;20518;-77
2023/04/05 00:43:38;;;;;;;4.82;2.80;;;-1.30;1.00;;;;;;5031097;28;20040;-77
2023/04/05 00:46:06;;;;;;;6.82;2.97;;;-1.10;1.00;;;;;;5022759;28;20042;-77
2023/04/05 00:48:33;;;;;;;5.10;2.70;;;-1.20;99.90;;;;;;5017673;28;20048;-80
2023/04/05 00:50:59;;;;;;;5.35;2.95;;;-1.10;99.90;;;;;;5028485;28;20029;-77
2023/04/05 00:53:27;;;;;;;17.67;7.78;;;-1.10;99.90;;;;;;5030697;28;20041;-77
2023/04/05 00:55:53;;;;;;;14.27;5.97;;;-1.20;99.90;;;;;;5028403;28;20525;-77
2023/04/05 00:58:23;;;;;;;17.52;11.00;;;-1.30;99.90;;;;;;5029676;28;20069;-77
2023/04/05 01:01:05;;;;;;;34.15;23.52;;;-1.40;99.90;;;;;;5027204;28;20049;-77
2023/04/05 01:03:34;;;;;;;28.20;20.48;;;-1.50;1.00;;;;;;5037672;28;20471;-76
2023/04/05 01:06:09;;;;;;;14.65;10.02;;;-1.60;1.00;;;;;;5026553;28;20054;-76
2023/04/05 01:08:35;;;;;;;6.00;4.30;;;-1.70;1.00;;;;;;5030169;28;20036;-77
2023/04/05 01:11:04;;;;;;;18.70;7.13;;;-1.70;1.00;;;;;;5015683;28;20046;-77
2023/04/05 01:13:31;;;;;;;9.10;4.20;;;-1.80;1.00;;;;;;5031930;28;20034;-77
2023/04/05 01:15:57;;;;;;;7.72;3.92;;;-1.70;1.00;;;;;;5032461;28;20033;-77
2023/04/05 01:18:25;;;;;;;6.38;3.65;;;-1.70;1.00;;;;;;5032278;28;20037;-80
2023/04/05 01:21:19;;;;;;;3.60;2.55;;;-1.70;1.00;;;;;;5031881;28;20044;-76
2023/04/05 01:24:24;;;;;;;5.63;2.92;;;-1.70;1.00;;;;;;5025385;28;20042;-83
2023/04/05 01:27:18;;;;;;;6.20;3.03;;;-1.70;1.00;;;;;;5042671;28;20033;-77
2023/04/05 01:29:51;;;;;;;4.32;2.65;;;-1.80;1.00;;;;;;5025471;28;20113;-82
2023/04/05 01:32:31;;;;;;;5.10;2.65;;;-1.80;1.00;;;;;;5032180;28;20038;-77
2023/04/05 01:35:09;;;;;;;6.43;3.65;;;-1.80;1.00;;;;;;5029896;28;20037;-77
2023/04/05 01:37:39;;;;;;;7.63;5.70;;;-1.60;1.00;;;;;;5034771;28;20057;-77
2023/04/05 01:40:07;;;;;;;4.70;3.60;;;-1.60;1.00;;;;;;5030876;28;20565;-76
2023/04/05 01:42:34;;;;;;;8.10;3.25;;;-1.70;1.00;;;;;;5026791;28;20045;-76
2023/04/05 01:45:01;;;;;;;3.33;2.60;;;-1.80;1.00;;;;;;5032084;28;20110;-76
2023/04/05 01:47:27;;;;;;;6.97;2.92;;;-1.90;1.00;;;;;;5032878;28;20029;-76
2023/04/05 01:49:53;;;;;;;5.00;2.53;;;-1.90;1.00;;;;;;5027699;28;20030;-76
2023/04/05 01:52:21;;;;;;;5.95;2.92;;;-1.90;1.00;;;;;;5027347;28;20037;-77
2023/04/05 01:54:47;;;;;;;7.00;2.30;;;-2.00;1.00;;;;;;5029425;28;20044;-80
2023/04/05 01:57:13;;;;;;;6.00;2.92;;;-2.00;1.00;;;;;;5033584;28;20052;-76
2023/04/05 01:59:39;;;;;;;9.02;5.60;;;-1.90;1.00;;;;;;5021095;28;20376;-76
2023/04/05 02:02:05;;;;;;;4.28;2.70;;;-1.80;1.00;;;;;;5013730;28;20034;-76
2023/04/05 02:04:31;;;;;;;5.35;2.75;;;-1.80;1.00;;;;;;5014111;28;20040;-76
2023/04/05 02:06:57;;;;;;;6.53;2.97;;;-1.80;1.00;;;;;;5019097;28;20029;-76
2023/04/05 02:09:24;;;;;;;4.63;2.85;;;-1.80;1.00;;;;;;5031282;28;20182;-77
2023/04/05 02:11:50;;;;;;;5.55;2.85;;;-1.80;1.00;;;;;;5034708;28;20033;-76
2023/04/05 02:14:17;;;;;;;5.72;3.38;;;-1.80;1.00;;;;;;5032668;28;20048;-77
2023/04/05 02:16:43;;;;;;;6.28;3.50;;;-1.90;1.00;;;;;;5031811;28;20382;-76
2023/04/05 02:19:10;;;;;;;3.95;2.72;;;-1.90;1.00;;;;;;5028674;28;20041;-76
2023/04/05 02:21:36;;;;;;;8.90;3.47;;;-1.90;1.00;;;;;;5033274;28;20038;-82
2023/04/05 02:24:02;;;;;;;6.20;2.60;;;-2.00;1.00;;;;;;5017565;28;20052;-76
2023/04/05 02:26:28;;;;;;;5.03;2.42;;;-2.00;1.00;;;;;;5023839;28;20377;-75
2023/04/05 02:28:57;;;;;;;5.65;2.90;;;-2.10;1.00;;;;;;5023888;28;20056;-76
2023/04/05 02:31:23;;;;;;;7.03;2.53;;;-2.20;1.00;;;;;;5030072;28;20052;-76
2023/04/05 02:33:49;;;;;;;3.90;2.35;;;-2.20;1.00;;;;;;5024522;28;20101;-81
2023/04/05 02:36:15;;;;;;;3.85;2.10;;;-2.20;1.00;;;;;;5032253;28;20033;-77
2023/04/05 02:38:41;;;;;;;5.07;2.53;;;-2.20;1.00;;;;;;5031635;28;20041;-77
2023/04/05 02:41:13;;;;;;;7.13;3.28;;;-2.20;1.00;;;;;;5023748;28;20048;-76
2023/04/05 02:43:39;;;;;;;6.90;4.13;;;-2.10;1.00;;;;;;5039674;28;20033;-76
2023/04/05 02:46:05;;;;;;;4.65;3.00;;;-2.20;1.00;;;;;;5017130;28;20406;-76
2023/04/05 02:48:37;;;;;;;5.60;2.97;;;-2.10;1.00;;;;;;5020168;28;20049;-77
2023/04/05 02:51:04;;;;;;;4.60;2.67;;;-2.10;1.00;;;;;;5030461;28;20040;-75
2023/04/05 02:53:30;;;;;;;5.00;3.05;;;-2.20;1.00;;;;;;5025964;28;20040;-76
2023/04/05 02:56:01;;;;;;;6.60;3.05;;;-2.20;1.00;;;;;;5029121;28;20400;-76
2023/04/05 02:58:30;;;;;;;5.65;2.65;;;-2.10;1.00;;;;;;5041858;28;20042;-76
2023/04/05 03:00:58;;;;;;;3.67;2.58;;;-2.10;1.00;;;;;;5029843;28;20034;-76
2023/04/05 03:03:30;;;;;;;13.20;4.85;;;-2.00;1.00;;;;;;5024400;28;20042;-75
2023/04/05 03:06:00;;;;;;;6.82;3.30;;;-2.10;1.00;;;;;;5029041;28;20045;-75
2023/04/05 03:08:29;;;;;;;6.05;3.88;;;-2.10;1.00;;;;;;5030523;28;20072;-76
2023/04/05 03:11:01;;;;;;;5.55;3.47;;;-2.20;1.00;;;;;;5027311;28;20034;-76
2023/04/05 03:13:27;;;;;;;4.18;3.17;;;-2.20;1.00;;;;;;5029773;28;20046;-76
2023/04/05 03:15:55;;;;;;;6.55;3.40;;;-2.20;1.00;;;;;;5025591;28;20041;-76
2023/04/05 03:18:25;;;;;;;6.03;3.08;;;-2.30;1.00;;;;;;5027254;28;20048;-76
2023/04/05 03:20:55;;;;;;;4.93;2.97;;;-2.30;1.00;;;;;;5026251;28;20517;-76
2023/04/05 03:23:26;;;;;;;7.03;2.75;;;-2.40;1.00;;;;;;5036776;28;20049;-77
2023/04/05 03:26:00;;;;;;;4.97;3.00;;;-2.50;1.00;;;;;;5029653;28;20052;-76
2023/04/05 03:28:31;;;;;;;5.20;2.75;;;-2.60;1.00;;;;;;5019894;28;20045;-75
2023/04/05 03:31:01;;;;;;;5.13;2.72;;;-2.60;1.00;;;;;;5004115;28;20038;-76
2023/04/05 03:33:28;;;;;;;5.47;2.67;;;-2.70;1.00;;;;;;5020044;28;20037;-75
2023/04/05 03:35:54;;;;;;;11.30;3.25;;;-2.60;1.00;;;;;;5019228;28;20049;-76
2023/04/05 03:38:21;;;;;;;5.18;3.55;;;-2.60;1.00;;;;;;5013886;28;20491;-76
2023/04/05 03:41:10;;;;;;;6.70;3.33;;;-2.60;1.00;;;;;;5020613;28;20052;-76
2023/04/05 03:43:36;;;;;;;7.05;2.55;;;-2.50;1.00;;;;;;5024969;28;20057;-77
2023/04/05 03:46:03;;;;;;;6.15;3.47;;;-2.60;1.00;;;;;;5022430;28;20046;-76
2023/04/05 03:48:29;;;;;;;7.72;3.28;;;-2.70;1.00;;;;;;5020289;28;20482;-76
2023/04/05 03:50:56;;;;;;;5.70;3.30;;;-2.80;1.00;;;;;;5022023;28;20034;-77
2023/04/05 03:53:22;;;;;;;5.68;3.33;;;-2.60;1.00;;;;;;5015741;28;20029;-74
2023/04/05 03:55:54;;;;;;;6.03;2.90;;;-2.60;1.00;;;;;;5017865;28;20101;-80
2023/04/05 03:58:27;;;;;;;6.50;3.10;;;-2.60;1.00;;;;;;5040553;28;20049;-75
2023/04/05 04:00:55;;;;;;;6.57;3.10;;;-2.70;1.00;;;;;;5029015;28;20053;-76
2023/04/05 04:03:24;;;;;;;6.68;3.35;;;-2.70;1.00;;;;;;5035889;28;20056;-77
2023/04/05 04:05:51;;;;;;;5.40;2.95;;;-2.80;1.00;;;;;;5039770;28;20053;-80
2023/04/05 04:08:19;;;;;;;4.30;2.75;;;-2.90;1.00;;;;;;5014200;28;20037;-75
2023/04/05 04:10:45;;;;;;;5.97;3.00;;;-3.00;1.00;;;;;;5030699;28;20042;-76
2023/04/05 04:13:18;;;;;;;5.82;2.60;;;-3.20;1.00;;;;;;5021517;28;20053;-76
2023/04/05 04:15:47;;;;;;;5.65;3.08;;;-3.20;1.00;;;;;;5026763;28;20406;-75
2023/04/05 04:18:33;;;;;;;5.25;2.75;;;-3.30;1.00;;;;;;5019168;28;20052;-77
2023/04/05 04:21:18;;;;;;;6.20;3.55;;;-3.40;1.00;;;;;;5030711;28;20049;-75
2023/04/05 04:24:15;;;;;;;;;;;-3.40;1.00;;;;;;5026247;28;20056;-77
2023/04/05 04:27:01;;;;;;;;;;;-3.10;1.00;;;;;;5028873;28;19916;-78
2023/04/05 04:29:48;;;;;;;5.88;3.10;;;-2.90;1.00;;;;;;5031389;28;19909;-78
2023/04/05 04:35:26;;;;;;;5.93;3.28;;;-3.20;1.00;;;;;;5026807;28;20390;-78
2023/04/05 04:38:24;;;;;;;6.70;2.90;;;-3.30;1.00;;;;;;5028246;28;20045;-77
2023/04/05 04:41:04;;;;;;;5.85;2.92;;;-3.30;1.00;;;;;;5030351;28;20048;-80
2023/04/05 04:43:46;;;;;;;8.30;3.53;;;-3.40;1.00;;;;;;5028827;28;20048;-78
2023/04/05 04:46:33;;;;;;;5.68;3.38;;;-3.40;1.00;;;;;;5028363;28;20037;-78
2023/04/05 04:49:06;;;;;;;5.18;3.83;;;-3.20;1.00;;;;;;5024783;28;20042;-77
2023/04/05 04:51:33;;;;;;;6.47;3.40;;;-3.20;1.00;;;;;;5028847;28;20034;-77
2023/04/05 04:53:59;;;;;;;6.90;3.80;;;-3.10;1.00;;;;;;5031423;28;20076;-78
2023/04/05 04:56:25;;;;;;;5.50;3.67;;;-3.10;1.00;;;;;;5031253;28;20030;-78
2023/04/05 04:58:55;;;;;;;5.40;3.47;;;-3.10;1.00;;;;;;5028150;28;20422;-83
2023/04/05 05:01:23;;;;;;;7.28;3.90;;;-3.10;1.00;;;;;;5040276;28;20046;-79
2023/04/05 05:03:50;;;;;;;6.93;3.40;;;-3.10;1.00;;;;;;5027864;28;20038;-78
2023/04/05 05:06:32;;;;;;;8.00;3.47;;;-3.00;1.00;;;;;;5025659;28;20041;-77
2023/04/05 05:08:58;;;;;;;4.82;3.08;;;-3.10;1.00;;;;;;5022909;28;20030;-79
2023/04/05 05:11:27;;;;;;;7.38;3.80;;;-3.10;1.00;;;;;;5020556;28;20094;-78
2023/04/05 05:13:54;;;;;;;8.23;3.97;;;-3.10;1.00;;;;;;5029860;28;20034;-82
2023/04/05 05:16:23;;;;;;;6.65;4.80;;;-3.00;1.00;;;;;;5036021;28;20042;-76
2023/04/05 05:18:53;;;;;;;6.07;3.90;;;-2.90;1.00;;;;;;5034171;28;20045;-76
2023/04/05 05:21:21;;;;;;;6.05;3.55;;;-2.80;1.00;;;;;;5024240;28;20046;-75
2023/04/05 05:23:54;;;;;;;6.45;3.50;;;-2.90;1.00;;;;;;5044588;28;20148;-82
2023/04/05 05:26:20;;;;;;;7.30;4.10;;;-2.90;1.00;;;;;;5027550;28;20034;-75
2023/04/05 05:28:48;;;;;;;10.35;4.75;;;-2.90;1.00;;;;;;5033666;28;20033;-79
2023/04/05 05:31:16;;;;;;;9.50;4.20;;;-2.70;1.00;;;;;;5030170;28;20045;-77
2023/04/05 05:33:46;;;;;;;7.30;4.28;;;-2.60;1.00;;;;;;5031947;28;20348;-75
2023/04/05 05:36:12;;;;;;;7.10;4.25;;;-2.60;1.00;;;;;;5032664;28;20046;-75
2023/04/05 05:38:38;;;;;;;6.78;4.47;;;-2.40;1.00;;;;;;5033472;28;20021;-75
2023/04/05 05:41:04;;;;;;;7.57;4.53;;;-2.00;1.00;;;;;;5021961;28;20041;-76
2023/04/05 05:43:31;;;;;;;7.72;3.85;;;-1.20;1.00;;;;;;5031949;28;20033;-82
2023/04/05 05:46:00;;;;;;;5.47;3.05;;;-0.50;1.00;;;;;;5026937;28;20108;-83
2023/04/05 05:48:26;;;;;;;4.90;3.08;;;0.50;99.90;;;;;;5019266;28;20185;-77
2023/04/05 05:50:53;;;;;;;4.72;2.60;;;1.20;99.90;;;;;;5030626;28;20091;-76
2023/04/05 05:53:19;;;;;;;5.32;2.97;;;1.60;99.90;;;;;;5021953;28;20037;-76
2023/04/05 05:55:45;;;;;;;3.72;2.90;;;1.40;99.90;;;;;;5029743;28;20045;-76
2023/04/05 05:58:11;;;;;;;4.45;3.10;;;1.60;99.90;;;;;;5027569;28;20387;-77
2023/04/05 06:00:37;;;;;;;7.70;3.13;;;2.20;99.90;;;;;;5033173;28;20046;-77
2023/04/05 06:03:04;;;;;;;8.00;4.50;;;3.00;99.90;;;;;;5030598;28;20390;-77
2023/04/05 06:05:31;;;;;;;8.75;3.67;;;3.10;99.90;;;;;;5031905;28;20041;-77
2023/04/05 06:07:57;;;;;;;5.13;3.00;;;3.50;99.90;;;;;;5031232;28;20030;-83
2023/04/05 06:10:24;;;;;;;7.47;3.20;;;3.40;99.90;;;;;;5031943;28;20033;-76
2023/04/05 06:12:52;;;;;;;8.80;2.85;;;3.30;99.90;;;;;;5032867;28;20458;-77
2023/04/05 06:15:18;;;;;;;6.05;2.78;;;3.20;99.90;;;;;;5031999;28;20319;-77
2023/04/05 06:17:44;;;;;;;4.60;3.20;;;3.00;99.90;;;;;;5029689;28;20036;-77
2023/04/05 06:20:11;;;;;;;6.85;3.60;;;3.20;99.90;;;;;;5031184;28;20391;-78
2023/04/05 06:22:40;;;;;;;9.13;2.75;;;3.30;99.90;;;;;;5031988;28;20213;-77
2023/04/05 06:25:08;;;;;;;6.30;3.10;;;3.50;99.90;;;;;;5028844;28;20034;-77
2023/04/05 06:27:34;;;;;;;3.70;3.05;;;3.70;99.90;;;;;;5027856;28;20049;-76
2023/04/05 06:30:00;;;;;;;5.18;3.15;;;3.80;99.90;;;;;;5019414;28;20754;-81
2023/04/05 06:32:27;;;;;;;6.20;4.28;;;3.60;99.90;;;;;;5032133;28;20455;-76
2023/04/05 06:34:53;;;;;;;6.38;4.28;;;3.60;99.90;;;;;;5023466;28;20402;-76
2023/04/05 06:37:19;;;;;;;7.35;3.80;;;3.30;99.90;;;;;;5029936;28;20652;-77
2023/04/05 06:39:45;;;;;;;6.47;3.92;;;3.60;99.90;;;;;;5025684;28;20391;-78
2023/04/05 06:42:11;;;;;;;6.53;4.20;;;4.00;99.90;;;;;;5021295;28;20042;-76
2023/04/05 06:44:44;;;;;;;6.10;4.00;;;4.30;99.90;;;;;;5024902;28;20380;-77
2023/04/05 06:47:10;;;;;;;6.10;3.97;;;4.30;99.90;;;;;;5028270;28;20375;-77
2023/04/05 06:49:36;;;;;;;7.53;4.15;;;4.40;99.90;;;;;;5026083;28;20025;-78
2023/04/05 06:52:04;;;;;;;9.90;4.85;;;4.40;99.90;;;;;;5020010;28;20607;-77
2023/04/05 06:54:32;;;;;;;7.90;3.65;;;4.10;99.90;;;;;;5024905;28;20033;-75
2023/04/05 06:56:58;;;;;;;7.57;3.78;;;4.20;99.90;;;;;;5027338;28;20470;-83
2023/04/05 06:59:26;;;;;;;6.18;3.35;;;4.40;99.90;;;;;;5031108;28;20025;-76
2023/04/05 07:01:52;;;;;;;6.55;3.40;;;4.90;99.90;;;;;;5028842;28;20033;-76
2023/04/05 07:04:18;;;;;;;7.10;4.60;;;5.30;99.90;;;;;;5021839;28;20037;-76
2023/04/05 07:06:45;;;;;;;6.25;3.88;;;5.20;99.90;;;;;;5022295;28;20390;-77
2023/04/05 07:09:11;;;;;;;5.55;3.30;;;5.40;99.90;;;;;;5025686;28;20025;-76
2023/04/05 07:11:38;;;;;;;9.18;4.00;;;5.00;99.90;;;;;;5027596;28;20036;-75
2023/04/05 07:14:05;;;;;;;5.43;3.45;;;5.30;99.90;;;;;;5030914;28;20029;-77
2023/04/05 07:16:31;;;;;;;4.15;3.53;;;5.60;99.90;;;;;;5024296;28;20037;-77
2023/04/05 07:18:57;;;;;;;6.93;3.60;;;6.00;99.40;;;;;;5027649;28;20025;-77
2023/04/05 07:21:23;;;;;;;6.55;2.75;;;5.20;97.30;;;;;;5019173;28;20052;-75
2023/04/05 07:23:52;;;;;;;7.22;3.13;;;5.40;98.20;;;;;;5031970;28;20040;-76
2023/04/05 07:26:18;;;;;;;5.53;2.92;;;6.00;95.20;;;;;;5029834;28;20050;-76
2023/04/05 07:28:44;;;;;;;7.00;3.03;;;7.20;84.40;;;;;;5023294;28;20034;-76
2023/04/05 07:31:13;;;;;;;5.00;3.15;;;7.60;76.00;;;;;;5012097;28;20033;-75
2023/04/05 07:33:39;;;;;;;7.80;2.67;;;7.20;75.20;;;;;;5027544;28;20034;-79
2023/04/05 07:36:05;;;;;;;5.72;2.95;;;7.70;74.40;;;;;;5037508;28;20386;-75
2023/04/05 07:38:32;;;;;;;5.43;3.42;;;7.20;77.70;;;;;;5027003;28;20124;-76
2023/04/05 07:40:58;;;;;;;3.78;2.70;;;7.50;71.80;;;;;;5029475;28;20037;-75
2023/04/05 07:43:24;;;;;;;4.15;2.50;;;8.40;66.70;;;;;;5029484;28;20652;-76
2023/04/05 07:45:52;;;;;;;4.38;2.58;;;8.90;55.90;;;;;;5029061;28;20021;-75
2023/04/05 07:48:19;;;;;;;5.97;2.50;;;9.70;47.60;;;;;;5026657;28;20029;-76
2023/04/05 07:50:46;;;;;;;5.38;2.60;;;10.20;41.80;;;;;;5028741;28;20383;-75
2023/04/05 07:53:13;;;;;;;5.55;2.92;;;10.00;42.60;;;;;;5024250;28;20038;-75
2023/04/05 07:55:40;;;;;;;2.53;1.98;;;9.00;43.80;;;;;;5029664;28;20044;-75
2023/04/05 07:58:06;;;;;;;3.20;2.15;;;9.00;41.20;;;;;;5017058;28;20034;-76
2023/04/05 08:00:32;;;;;;;4.38;2.55;;;8.40;43.70;;;;;;5029752;28;20151;-75
2023/04/05 08:02:58;;;;;;;4.32;2.35;;;8.10;46.30;;;;;;5022952;28;20044;-75
2023/04/05 08:05:27;;;;;;;3.50;2.13;;;8.60;42.10;;;;;;5030422;28;20034;-75
2023/04/05 08:07:54;;;;;;;3.95;2.33;;;7.70;42.20;;;;;;5030799;28;20081;-75
2023/04/05 08:10:20;;;;;;;5.68;2.65;;;7.60;45.40;;;;;;5020043;28;20395;-75
2023/04/05 08:12:46;;;;;;;5.25;2.25;;;7.50;46.00;;;;;;5026363;28;20029;-76
2023/04/05 08:15:12;;;;;;;4.65;2.20;;;7.20;43.40;;;;;;5027602;28;20033;-77
2023/04/05 08:17:38;;;;;;;3.83;2.20;;;8.50;41.70;;;;;;5035100;28;20041;-76
2023/04/05 08:20:05;;;;;;;3.85;1.98;;;8.70;37.10;;;;;;5032655;28;20060;-84
2023/04/05 08:22:31;;;;;;;5.60;2.85;;;8.20;40.90;;;;;;5034663;28;20120;-76
2023/04/05 08:24:57;;;;;;;6.60;2.58;;;7.30;46.70;;;;;;5027841;28;20034;-76
2023/04/05 08:27:24;;;;;;;5.55;2.63;;;8.40;45.40;;;;;;5033022;28;20034;-76
2023/04/05 08:29:50;;;;;;;5.45;3.08;;;8.50;43.00;;;;;;5032191;28;20146;-76
2023/04/05 08:32:16;;;;;;;6.53;2.80;;;8.40;43.40;;;;;;5033883;28;20064;-76
2023/04/05 08:34:42;;;;;;;5.68;2.78;;;9.10;41.20;;;;;;5032573;28;20415;-76
2023/04/05 08:37:08;;;;;;;3.70;2.40;;;10.20;35.50;;;;;;5030281;28;20372;-76
2023/04/05 08:39:35;;;;;;;6.45;2.10;;;9.40;34.90;;;;;;5024393;28;20037;-76
2023/04/05 08:42:14;;;;;;;6.10;2.60;;;9.60;35.60;;;;;;5038015;28;20045;-76
2023/04/05 08:44:43;;;;;;;4.45;2.42;;;10.20;31.70;;;;;;5026881;28;20029;-75
2023/04/05 08:47:14;;;;;;;4.50;2.45;;;9.90;31.10;;;;;;5030521;28;20052;-75
2023/04/05 08:49:44;;;;;;;3.47;2.00;;;9.80;30.00;;;;;;5030328;28;20046;-79
2023/04/05 08:52:10;;;;;;;5.50;2.05;;;9.20;32.00;;;;;;5026299;28;20040;-76
2023/04/05 08:54:37;;;;;;;7.35;2.42;;;8.80;30.50;;;;;;5024279;28;20029;-76
2023/04/05 08:57:05;;;;;;;3.38;2.53;;;8.20;32.80;;;;;;5025972;28;20045;-76
2023/04/05 08:59:35;;;;;;;3.67;2.00;;;8.00;33.00;;;;;;5019407;28;20414;-76
2023/04/05 09:02:07;;;;;;;3.20;2.23;;;9.10;32.70;;;;;;5027247;28;20057;-75
2023/04/05 09:04:43;;;;;;;5.65;2.60;;;8.70;30.50;;;;;;5030691;28;20041;-76
2023/04/05 09:07:12;;;;;;;5.25;2.70;;;9.60;32.60;;;;;;5025659;28;20040;-76
2023/04/05 09:09:41;;;;;;;4.28;2.63;;;10.20;31.70;;;;;;5027243;28;20764;-81
2023/04/05 09:12:07;;;;;;;3.85;2.40;;;10.80;28.80;;;;;;5034036;28;20030;-84
2023/04/05 09:14:35;;;;;;;4.25;2.38;;;11.90;23.90;;;;;;5021391;28;20032;-76
2023/04/05 09:17:02;;;;;;;6.80;3.13;;;12.00;22.70;;;;;;5033908;28;20036;-75
2023/04/05 09:19:29;;;;;;;5.60;2.88;;;11.10;24.30;;;;;;5034586;28;20056;-75
2023/04/05 09:22:03;;;;;;;5.05;2.22;;;11.00;23.50;;;;;;5039259;28;20045;-75
2023/04/05 09:24:42;;;;;;;8.32;2.40;;;10.60;25.30;;;;;;5031005;28;20049;-75
2023/04/05 09:27:10;;;;;;;3.55;2.15;;;10.90;23.30;;;;;;5027978;28;20037;-84
2023/04/05 09:29:38;;;;;;;5.13;2.50;;;9.70;23.70;;;;;;5028537;28;20046;-80
2023/04/05 09:32:07;;;;;;;4.55;1.95;;;9.30;25.90;;;;;;5025561;28;20049;-80
2023/04/05 09:34:37;;;;;;;3.38;2.47;;;10.00;26.50;;;;;;5032086;28;20036;-75
2023/04/05 09:37:18;;;;;;;5.35;2.13;;;11.10;21.70;;;;;;5034066;28;20041;-75
2023/04/05 09:39:50;;;;;;;5.63;3.38;;;10.60;21.50;;;;;;5026914;28;20030;-75
2023/04/05 09:42:18;;;;;;;2.90;2.20;;;10.20;23.00;;;;;;5020979;28;20046;-74
2023/04/05 09:45:01;;;;;;;4.53;2.30;;;10.10;24.50;;;;;;5044655;28;20038;-75
2023/04/05 09:47:33;;;;;;;4.57;2.53;;;9.60;24.20;;;;;;5028163;28;20570;-74
2023/04/05 09:50:17;;;;;;;4.38;2.35;;;9.50;24.50;;;;;;5031169;28;20040;-75
2023/04/05 09:52:44;;;;;;;5.80;2.80;;;9.10;25.70;;;;;;5022315;28;20033;-75
2023/04/05 09:55:11;;;;;;;4.55;2.47;;;8.90;25.70;;;;;;5030154;28;20048;-81
2023/04/05 09:57:40;;;;;;;4.32;2.13;;;8.70;27.10;;;;;;5033155;28;20045;-75
2023/04/05 10:00:17;;;;;;;5.38;3.25;;;9.10;28.00;;;;;;5027924;28;20033;-75
2023/04/05 10:02:43;;;;;;;3.83;2.45;;;9.80;26.30;;;;;;5026267;28;20025;-74
2023/04/05 10:05:12;;;;;;;4.45;2.85;;;9.40;25.90;;;;;;5035926;28;20038;-81
2023/04/05 10:07:39;;;;;;;3.85;2.63;;;9.70;25.70;;;;;;5032893;28;20490;-75
2023/04/05 10:10:07;;;;;;;4.82;2.83;;;9.30;25.00;;;;;;5027970;28;20042;-74
2023/04/05 10:12:40;;;;;;;3.45;2.38;;;9.00;25.50;;;;;;5026863;28;20033;-74
2023/04/05 10:15:08;;;;;;;4.10;3.00;;;8.80;25.70;;;;;;5040430;28;20372;-74
2023/04/05 10:18:02;;;;;;;6.38;2.88;;;8.80;26.50;;;;;;5035547;28;20063;-75
2023/04/05 10:20:32;;;;;;;6.10;3.90;;;9.20;27.20;;;;;;5028425;28;20253;-74
2023/04/05 10:23:16;;;;;;;3.83;2.60;;;9.30;26.00;;;;;;5023369;28;20414;-75
2023/04/05 10:26:18;;;;;;;6.47;2.80;;;9.80;26.20;;;;;;5028300;28;20040;-75
2023/04/05 10:28:50;;;;;;;6.30;2.72;;;9.90;23.00;;;;;;5025371;28;20030;-75
2023/04/05 10:31:22;;;;;;;7.15;2.97;;;9.50;24.90;;;;;;5017298;28;20037;-74
2023/04/05 10:34:03;;;;;;;4.07;2.63;;;9.60;25.80;;;;;;5020783;28;20046;-73
2023/04/05 10:36:44;;;;;;;4.22;2.83;;;9.40;22.30;;;;;;5028223;28;20816;-76
2023/04/05 10:39:27;;;;;;;3.25;2.08;;;9.40;20.90;;;;;;5013123;28;20030;-84
2023/04/05 10:41:58;;;;;;;4.15;2.40;;;9.40;21.40;;;;;;5017691;28;20052;-75
2023/04/05 10:44:24;;;;;;;3.78;2.20;;;9.20;19.90;;;;;;5033279;28;20033;-75
2023/04/05 10:46:52;;;;;;;5.45;2.90;;;8.90;21.30;;;;;;5033243;28;20038;-74
2023/04/05 10:49:25;;;;;;;4.88;2.95;;;9.10;22.30;;;;;;5024907;28;20049;-75
2023/04/05 10:51:51;;;;;;;6.15;3.30;;;9.30;23.00;;;;;;5028664;28;20033;-75
2023/04/05 10:54:19;;;;;;;4.07;2.60;;;9.90;22.60;;;;;;5026002;28;20482;-75
2023/04/05 10:56:46;;;;;;;6.38;2.92;;;10.20;19.80;;;;;;5019744;28;20048;-75
2023/04/05 10:59:12;;;;;;;5.07;2.90;;;10.20;20.10;;;;;;5022838;28;20565;-78
2023/04/05 11:01:39;;;;;;;4.22;2.55;;;10.30;20.60;;;;;;5035419;28;20038;-75
2023/04/05 11:04:13;;;;;;;4.20;2.47;;;10.30;20.70;;;;;;5027946;28;20364;-75
2023/04/05 11:06:41;;;;;;;4.70;2.70;;;10.30;20.90;;;;;;5017077;28;20037;-75
2023/04/05 11:09:16;;;;;;;4.95;3.38;;;9.70;22.50;;;;;;5029581;28;20196;-76
2023/04/05 11:11:48;;;;;;;5.90;2.92;;;9.60;23.00;;;;;;5034057;28;20037;-76
2023/04/05 11:14:19;;;;;;;6.75;4.00;;;9.70;24.30;;;;;;5029647;28;20029;-81
2023/04/05 11:16:48;;;;;;;5.75;3.40;;;10.00;24.40;;;;;;5024751;28;20029;-75
2023/04/05 11:19:17;;;;;;;4.63;3.25;;;10.20;21.20;;;;;;5025572;28;20038;-82
2023/04/05 11:21:43;;;;;;;3.85;2.95;;;9.90;20.60;;;;;;5025617;28;20045;-74
2023/04/05 11:24:14;;;;;;;5.80;3.88;;;9.60;21.60;;;;;;5030230;28;20042;-74
2023/04/05 11:26:43;;;;;;;5.50;3.47;;;9.40;20.90;;;;;;5031264;28;20046;-75
2023/04/05 11:29:10;;;;;;;8.95;3.63;;;9.30;21.00;;;;;;5030808;28;20052;-75
2023/04/05 11:31:58;;;;;;;5.32;3.25;;;9.20;21.50;;;;;;5029907;28;20041;-74
2023/04/05 11:34:24;;;;;;;8.82;3.90;;;9.20;22.70;;;;;;5029044;28;20045;-75
2023/04/05 11:36:51;;;;;;;10.20;4.07;;;9.70;24.50;;;;;;5030725;28;20048;-75
2023/04/05 11:39:17;;;;;;;6.82;3.78;;;10.20;22.00;;;;;;5028947;28;20099;-75
2023/04/05 11:41:46;;;;;;;6.75;2.88;;;10.60;20.20;;;;;;5029807;28;20057;-77
2023/04/05 11:44:16;;;;;;;5.70;3.42;;;10.60;20.00;;;;;;5029830;28;20030;-79
2023/04/05 11:46:42;;;;;;;7.25;3.30;;;10.00;20.10;;;;;;5023136;28;20025;-77
2023/04/05 11:49:08;;;;;;;6.88;3.90;;;9.70;21.40;;;;;;5029213;28;20056;-77
2023/04/05 11:51:35;;;;;;;6.40;3.47;;;9.50;21.90;;;;;;5028586;28;20033;-77
2023/04/05 11:54:01;;;;;;;8.45;4.13;;;9.70;22.10;;;;;;5028669;28;20030;-74
2023/04/05 11:56:27;;;;;;;6.70;3.40;;;9.70;21.00;;;;;;5027641;28;20048;-74
2023/04/05 11:58:57;;;;;;;7.20;3.90;;;10.10;22.40;;;;;;5022887;28;20030;-74
2023/04/05 12:01:24;;;;;;;8.02;3.47;;;10.50;21.20;;;;;;5024191;28;20033;-74
2023/04/05 12:03:55;;;;;;;5.80;3.13;;;10.30;20.10;;;;;;5021894;28;20383;-74
2023/04/05 12:06:21;;;;;;;;;;;10.00;21.60;;;;;;5022038;28;20034;-74
2023/04/05 12:08:51;;;;;;;8.48;4.50;;;10.00;21.00;;;;;;5023515;28;19914;-74
2023/04/05 12:11:30;;;;;;;4.75;3.65;;;10.00;19.60;;;;;;5023393;28;20387;-75
2023/04/05 12:13:58;;;;;;;6.35;3.58;;;9.50;20.60;;;;;;5022011;28;20040;-73
2023/04/05 12:16:25;;;;;;;8.48;3.70;;;9.50;21.20;;;;;;5022233;28;20038;-74
2023/04/05 12:18:56;;;;;;;6.53;3.13;;;9.80;21.80;;;;;;5023777;28;20088;-74
2023/04/05 12:21:23;;;;;;;5.50;3.30;;;10.00;20.80;;;;;;5022230;28;20502;-74
2023/04/05 12:23:50;;;;;;;6.45;3.83;;;10.00;21.80;;;;;;5027387;28;20467;-74
2023/04/05 12:26:17;;;;;;;7.18;3.60;;;10.50;22.30;;;;;;5028819;28;20037;-80
2023/04/05 12:28:57;;;;;;;7.90;4.20;;;10.50;19.30;;;;;;5028905;28;20026;-75
2023/04/05 12:31:43;;;;;;;7.35;4.40;;;10.10;20.30;;;;;;5028596;28;20033;-74
2023/04/05 12:34:10;;;;;;;5.07;4.45;;;9.90;21.00;;;;;;5028578;28;20379;-76
2023/04/05 12:36:38;;;;;;;8.80;3.90;;;9.90;20.70;;;;;;5026886;28;20040;-75
2023/04/05 12:39:08;;;;;;;3.53;3.00;;;10.00;20.10;;;;;;5027246;28;20379;-74
2023/04/05 12:41:35;;;;;;;4.78;3.75;;;10.30;19.50;;;;;;5029362;28;20064;-74
2023/04/05 12:44:11;;;;;;;6.45;4.15;;;10.40;20.70;;;;;;5028170;28;20042;-74
2023/04/05 12:46:41;;;;;;;7.00;4.20;;;9.60;20.10;;;;;;5029736;28;20036;-74
2023/04/05 12:49:16;;;;;;;4.90;3.42;;;9.70;20.30;;;;;;5016304;28;20049;-74
2023/04/05 12:51:46;;;;;;;5.32;3.63;;;10.10;22.00;;;;;;5019069;28;20026;-74
2023/04/05 12:54:21;;;;;;;5.05;3.30;;;10.10;20.90;;;;;;5022896;28;20130;-74
2023/04/05 12:56:51;;;;;;;6.38;3.25;;;9.90;20.50;;;;;;5026595;28;20041;-74
2023/04/05 12:59:18;;;;;;;5.65;3.17;;;9.90;21.00;;;;;;5032535;28;20807;-78
2023/04/05 13:01:44;;;;;;;4.78;3.15;;;10.00;21.10;;;;;;5027378;28;20068;-74
2023/04/05 13:04:10;;;;;;;8.00;3.67;;;9.90;17.90;;;;;;5034050;28;20371;-74
2023/04/05 13:06:36;;;;;;;5.65;2.85;;;9.90;19.20;;;;;;5031141;28;20044;-73
2023/04/05 13:09:03;;;;;;;7.22;3.67;;;10.00;20.10;;;;;;5033663;28;20348;-74
2023/04/05 13:11:29;;;;;;;6.78;3.17;;;10.40;20.80;;;;;;5033070;28;20049;-74